Time;durP1;ratioP1;P1;durP2;ratioP2;P2;SDS_P1;SDS_P2;PMS_P1;PMS_P2;Temp;Humidity;BMP_temperature;BMP_pressure;BME280_temperature;BME280_humidity;BME280_pressure;Samples;Min_cycle;Max_cycle;Signal;HPM_P1;HPM_P2
2023/12/15 00:00:29;;;;;;;65.60;19.40;;;;;;;;;;5073292;28;20222;-77
2023/12/15 00:03:16;;;;;;;56.47;20.50;;;;;;;;;;5073598;28;20242;-77
2023/12/15 00:05:44;;;;;;;55.00;19.33;;;;;;;;;;5073319;28;20195;-77
2023/12/15 00:08:11;;;;;;;58.23;18.67;;;;;;;;;;5073119;28;20199;-77
2023/12/15 00:10:39;;;;;;;66.47;19.40;;;;;;;;;;5072877;28;20226;-77
2023/12/15 00:13:06;;;;;;;60.60;19.67;;;;;;;;;;5055338;28;20195;-78
2023/12/15 00:15:33;;;;;;;56.77;18.83;;;;;;;;;;5072910;28;20202;-77
2023/12/15 00:18:00;;;;;;;58.53;19.27;;;;;;;;;;5073263;28;20210;-77
2023/12/15 00:20:28;;;;;;;57.67;18.23;;;;;;;;;;5073230;28;20206;-77
2023/12/15 00:22:55;;;;;;;61.70;18.50;;;;;;;;;;5073365;28;20257;-78
2023/12/15 00:25:22;;;;;;;58.63;18.90;;;;;;;;;;5072858;28;20243;-77
2023/12/15 00:27:49;;;;;;;51.17;19.30;;;;;;;;;;5072806;28;20214;-77
2023/12/15 00:30:16;;;;;;;46.20;17.40;;;;;;;;;;5072528;28;20596;-77
2023/12/15 00:32:44;;;;;;;52.53;17.67;;;;;;;;;;5072919;28;20574;-77
2023/12/15 00:35:11;;;;;;;49.60;17.87;;;;;;;;;;5073081;28;20253;-77
2023/12/15 00:37:38;;;;;;;49.50;18.27;;;;;;;;;;5072808;28;20204;-77
2023/12/15 00:40:06;;;;;;;48.90;17.30;;;;;;;;;;5072732;28;20215;-79
2023/12/15 00:42:33;;;;;;;48.33;16.80;;;;;;;;;;5054888;28;20195;-77
2023/12/15 00:45:01;;;;;;;39.60;15.67;;;;;;;;;;5072752;28;20196;-77
2023/12/15 00:47:27;;;;;;;46.30;17.53;;;;;;;;;;5072703;28;20195;-77
2023/12/15 00:49:55;;;;;;;44.57;16.97;;;;;;;;;;5072946;28;20284;-77
2023/12/15 00:52:22;;;;;;;45.70;16.20;;;;;;;;;;5072853;28;20269;-77
2023/12/15 00:54:49;;;;;;;48.10;17.53;;;;;;;;;;5034290;28;1099164;-77
2023/12/15 00:57:16;;;;;;;38.63;15.90;;;;;;;;;;5073309;28;20203;-77
2023/12/15 00:59:43;;;;;;;43.53;16.07;;;;;;;;;;5072433;28;20215;-77
2023/12/15 01:02:10;;;;;;;46.50;17.37;;;;;;;;;;5065491;28;20904;-77
2023/12/15 01:04:38;;;;;;;42.57;16.97;;;;;;;;;;5073423;28;20544;-77
2023/12/15 01:07:04;;;;;;;42.27;16.63;;;;;;;;;;5073372;28;20199;-77
2023/12/15 01:09:32;;;;;;;39.00;15.13;;;;;;;;;;5073003;28;20692;-77
2023/12/15 01:11:59;;;;;;;42.10;15.37;;;;;;;;;;5073029;28;20204;-77
2023/12/15 01:14:26;;;;;;;40.73;16.00;;;;;;;;;;5073540;28;20606;-77
2023/12/15 01:16:53;;;;;;;36.27;15.20;;;;;;;;;;5073376;28;20207;-77
2023/12/15 01:19:21;;;;;;;35.03;14.30;;;;;;;;;;5073379;28;20211;-78
2023/12/15 01:21:48;;;;;;;34.67;14.97;;;;;;;;;;5073184;28;20199;-77
2023/12/15 01:24:15;;;;;;;35.97;14.00;;;;;;;;;;5072933;28;20204;-77
2023/12/15 01:26:42;;;;;;;31.53;14.27;;;;;;;;;;5073480;28;20210;-77
2023/12/15 01:29:09;;;;;;;31.10;12.83;;;;;;;;;;5073346;28;20219;-77
2023/12/15 01:31:36;;;;;;;32.83;13.37;;;;;;;;;;5072998;28;20202;-77
2023/12/15 01:34:03;;;;;;;38.60;14.13;;;;;;;;;;5073089;28;20195;-78
2023/12/15 01:36:30;;;;;;;35.07;13.83;;;;;;;;;;5073006;28;20691;-77
2023/12/15 01:38:58;;;;;;;42.07;15.17;;;;;;;;;;5073117;28;20195;-77
2023/12/15 01:41:25;;;;;;;40.33;14.90;;;;;;;;;;5073149;28;20199;-78
2023/12/15 01:43:52;;;;;;;31.37;13.63;;;;;;;;;;5073281;28;20207;-77
2023/12/15 01:46:19;;;;;;;33.67;13.97;;;;;;;;;;5073158;28;20212;-77
2023/12/15 01:48:47;;;;;;;32.40;13.10;;;;;;;;;;5072928;28;20562;-77
2023/12/15 01:51:15;;;;;;;31.83;13.07;;;;;;;;;;5038692;28;20277;-77
2023/12/15 01:53:43;;;;;;;28.60;13.10;;;;;;;;;;5072920;28;20199;-77
2023/12/15 01:56:10;;;;;;;30.03;12.33;;;;;;;;;;5073219;28;20227;-78
2023/12/15 01:58:37;;;;;;;30.27;13.27;;;;;;;;;;5072748;28;20191;-80
2023/12/15 02:01:07;;;;;;;32.97;11.93;;;;;;;;;;5055393;28;20206;-80
2023/12/15 02:03:34;;;;;;;27.43;11.37;;;;;;;;;;5072470;28;20594;-80
2023/12/15 02:06:01;;;;;;;28.33;12.77;;;;;;;;;;5073436;28;20225;-77
2023/12/15 02:08:28;;;;;;;28.13;11.33;;;;;;;;;;5072637;28;20204;-78
2023/12/15 02:10:55;;;;;;;27.73;11.90;;;;;;;;;;5074754;28;20676;-78
2023/12/15 02:13:23;;;;;;;22.03;10.53;;;;;;;;;;5076301;28;20195;-78
2023/12/15 02:15:49;;;;;;;26.23;11.17;;;;;;;;;;5076307;28;20298;-78
2023/12/15 02:18:17;;;;;;;25.70;11.03;;;;;;;;;;5076009;28;20203;-78
2023/12/15 02:20:44;;;;;;;22.43;10.50;;;;;;;;;;5076194;28;20204;-80
2023/12/15 02:23:11;;;;;;;25.97;11.00;;;;;;;;;;5076030;28;20195;-77
2023/12/15 02:25:38;;;;;;;21.57;10.00;;;;;;;;;;5076241;28;20195;-77
2023/12/15 02:28:05;;;;;;;28.03;11.00;;;;;;;;;;5076339;28;20203;-77
2023/12/15 02:30:32;;;;;;;30.90;11.60;;;;;;;;;;5076241;28;20242;-77
2023/12/15 02:32:59;;;;;;;25.87;10.80;;;;;;;;;;5076003;28;20203;-77
2023/12/15 02:35:27;;;;;;;26.40;10.77;;;;;;;;;;5075700;28;20199;-77
2023/12/15 02:37:54;;;;;;;26.37;10.87;;;;;;;;;;5075940;28;20899;-77
2023/12/15 02:40:21;;;;;;;25.13;10.70;;;;;;;;;;5075848;28;20687;-78
2023/12/15 02:42:48;;;;;;;25.40;11.00;;;;;;;;;;5075550;28;20231;-77
2023/12/15 02:45:15;;;;;;;26.57;11.40;;;;;;;;;;5075613;28;20537;-78
2023/12/15 02:47:42;;;;;;;25.77;10.83;;;;;;;;;;5074867;28;20195;-78
2023/12/15 02:50:11;;;;;;;24.27;10.37;;;;;;;;;;5073904;28;20314;-78
2023/12/15 02:52:39;;;;;;;27.90;10.73;;;;;;;;;;5074446;28;20268;-78
2023/12/15 02:55:06;;;;;;;27.03;10.47;;;;;;;;;;5073997;28;20235;-78
2023/12/15 02:57:35;;;;;;;24.57;11.53;;;;;;;;;;5074059;28;20215;-77
2023/12/15 03:00:03;;;;;;;25.50;11.57;;;;;;;;;;5074178;28;20235;-77
2023/12/15 03:02:30;;;;;;;29.20;11.60;;;;;;;;;;5074266;28;20188;-77
2023/12/15 03:04:57;;;;;;;26.80;12.00;;;;;;;;;;5074215;28;20222;-77
2023/12/15 03:07:24;;;;;;;29.10;13.20;;;;;;;;;;5073962;28;20214;-78
2023/12/15 03:09:51;;;;;;;29.20;13.77;;;;;;;;;;5075028;28;20633;-78
2023/12/15 03:12:18;;;;;;;32.17;13.60;;;;;;;;;;5057308;28;20691;-77
2023/12/15 03:14:45;;;;;;;32.87;15.20;;;;;;;;;;5075219;28;20203;-77
2023/12/15 03:17:12;;;;;;;35.23;16.23;;;;;;;;;;5057569;28;20187;-77
2023/12/15 03:19:39;;;;;;;37.53;16.07;;;;;;;;;;5075093;28;20640;-77
2023/12/15 03:22:07;;;;;;;38.33;16.17;;;;;;;;;;5056114;28;20204;-77
2023/12/15 03:24:33;;;;;;;33.13;14.70;;;;;;;;;;5057159;28;20199;-78
2023/12/15 03:27:01;;;;;;;31.80;14.67;;;;;;;;;;5074860;28;20199;-78
2023/12/15 03:29:28;;;;;;;33.27;15.60;;;;;;;;;;5074762;28;20195;-78
2023/12/15 03:31:56;;;;;;;37.43;15.47;;;;;;;;;;5075193;28;20710;-78
2023/12/15 03:34:23;;;;;;;34.73;16.80;;;;;;;;;;5074920;28;20192;-77
2023/12/15 03:36:50;;;;;;;33.27;15.43;;;;;;;;;;5074897;28;20194;-77
2023/12/15 03:39:17;;;;;;;36.83;14.27;;;;;;;;;;5074520;28;20187;-77
2023/12/15 03:41:44;;;;;;;32.70;14.73;;;;;;;;;;5074629;28;20207;-77
2023/12/15 03:44:12;;;;;;;31.93;15.70;;;;;;;;;;5074211;28;20208;-77
2023/12/15 03:46:39;;;;;;;31.33;13.93;;;;;;;;;;5074516;28;20210;-77
2023/12/15 03:49:06;;;;;;;34.90;14.97;;;;;;;;;;5074515;28;20651;-77
2023/12/15 03:51:33;;;;;;;35.73;15.70;;;;;;;;;;5056836;28;20233;-77
2023/12/15 03:54:00;;;;;;;29.30;14.17;;;;;;;;;;5074103;28;20195;-77
2023/12/15 03:56:29;;;;;;;33.23;14.50;;;;;;;;;;5074791;28;20204;-76
2023/12/15 03:58:56;;;;;;;36.13;15.37;;;;;;;;;;5074427;28;20199;-77
2023/12/15 04:01:23;;;;;;;30.77;13.47;;;;;;;;;;5074153;28;20203;-77
2023/12/15 04:03:50;;;;;;;38.10;15.87;;;;;;;;;;5074165;28;20207;-78
2023/12/15 04:06:17;;;;;;;33.53;15.23;;;;;;;;;;5074113;28;20207;-77
2023/12/15 04:08:44;;;;;;;39.47;16.27;;;;;;;;;;5074249;28;20199;-78
2023/12/15 04:11:11;;;;;;;33.03;14.90;;;;;;;;;;5073896;28;20269;-78
2023/12/15 04:13:38;;;;;;;33.33;15.30;;;;;;;;;;5073914;28;20560;-77
2023/12/15 04:16:06;;;;;;;38.47;14.77;;;;;;;;;;5073868;28;20191;-78
2023/12/15 04:18:33;;;;;;;33.60;14.63;;;;;;;;;;5074199;28;20206;-77
2023/12/15 04:21:05;;;;;;;27.70;13.00;;;;;;;;;;5073944;28;20580;-77
2023/12/15 04:23:32;;;;;;;38.07;15.23;;;;;;;;;;5074171;28;20192;-77
2023/12/15 04:25:59;;;;;;;38.20;16.20;;;;;;;;;;5073830;28;20256;-77
2023/12/15 04:28:27;;;;;;;31.60;13.07;;;;;;;;;;5073688;28;20650;-77
2023/12/15 04:30:54;;;;;;;34.03;13.77;;;;;;;;;;5073869;28;20219;-77
2023/12/15 04:33:21;;;;;;;28.53;13.40;;;;;;;;;;5073544;28;20210;-78
2023/12/15 04:35:48;;;;;;;30.63;12.67;;;;;;;;;;5073783;28;20191;-77
2023/12/15 04:38:15;;;;;;;28.27;13.83;;;;;;;;;;5073273;28;20199;-77
2023/12/15 04:40:43;;;;;;;26.83;12.43;;;;;;;;;;5073844;28;20268;-77
2023/12/15 04:43:10;;;;;;;34.13;14.73;;;;;;;;;;5073556;28;20281;-78
2023/12/15 04:45:38;;;;;;;26.83;12.17;;;;;;;;;;5073661;28;20211;-77
2023/12/15 04:48:05;;;;;;;29.10;13.43;;;;;;;;;;5073807;28;20593;-78
2023/12/15 04:50:32;;;;;;;27.70;12.40;;;;;;;;;;5073547;28;20219;-78
2023/12/15 04:53:04;;;;;;;26.27;12.03;;;;;;;;;;5064818;28;20913;-78
2023/12/15 04:55:32;;;;;;;24.80;12.30;;;;;;;;;;5072202;28;20243;-78
2023/12/15 04:57:58;;;;;;;27.77;12.53;;;;;;;;;;5072930;28;20214;-78
2023/12/15 05:00:26;;;;;;;28.07;12.83;;;;;;;;;;5073174;28;20214;-78
2023/12/15 05:02:53;;;;;;;25.43;12.30;;;;;;;;;;5072982;28;20248;-78
2023/12/15 05:05:20;;;;;;;27.17;12.37;;;;;;;;;;5073089;28;20199;-78
2023/12/15 05:07:48;;;;;;;32.37;12.70;;;;;;;;;;5066984;28;20323;-77
2023/12/15 05:10:15;;;;;;;24.07;11.67;;;;;;;;;;5072192;28;20227;-77
2023/12/15 05:12:42;;;;;;;25.90;11.30;;;;;;;;;;5071231;28;20306;-78
2023/12/15 05:15:10;;;;;;;27.50;12.60;;;;;;;;;;5072426;28;20238;-78
2023/12/15 05:17:37;;;;;;;28.10;12.77;;;;;;;;;;5070845;28;20712;-78
2023/12/15 05:20:05;;;;;;;24.67;12.20;;;;;;;;;;5059212;28;20228;-77
2023/12/15 05:22:32;;;;;;;23.77;11.23;;;;;;;;;;5071363;28;20240;-77
2023/12/15 05:25:00;;;;;;;22.80;11.03;;;;;;;;;;5072343;28;20231;-77
2023/12/15 05:27:27;;;;;;;27.70;11.07;;;;;;;;;;5072100;28;20228;-77
2023/12/15 05:29:54;;;;;;;22.60;10.57;;;;;;;;;;5072047;28;20223;-78
2023/12/15 05:32:21;;;;;;;24.57;10.67;;;;;;;;;;5071923;28;20227;-78
2023/12/15 05:34:48;;;;;;;20.83;10.90;;;;;;;;;;5072718;28;20231;-77
2023/12/15 05:37:15;;;;;;;25.77;11.27;;;;;;;;;;5071988;28;20269;-77
2023/12/15 05:39:44;;;;;;;21.53;10.27;;;;;;;;;;5071829;28;20242;-78
2023/12/15 05:42:11;;;;;;;22.57;11.00;;;;;;;;;;5072177;28;20692;-78
2023/12/15 05:44:41;;;;;;;22.37;10.70;;;;;;;;;;5071147;28;20236;-77
2023/12/15 05:47:08;;;;;;;22.87;10.97;;;;;;;;;;5075946;28;20325;-78
2023/12/15 05:49:40;;;;;;;20.20;10.37;;;;;;;;;;5075265;28;20273;-77
2023/12/15 05:52:09;;;;;;;23.20;10.33;;;;;;;;;;5074565;28;20265;-77
2023/12/15 05:54:40;;;;;;;22.27;10.20;;;;;;;;;;5074644;28;20309;-78
2023/12/15 05:57:07;;;;;;;21.73;10.47;;;;;;;;;;5075089;28;20216;-77
2023/12/15 05:59:39;;;;;;;22.50;10.53;;;;;;;;;;5074796;28;20223;-78
2023/12/15 06:02:06;;;;;;;21.20;10.87;;;;;;;;;;5076700;28;20306;-78
2023/12/15 06:04:33;;;;;;;22.33;11.23;;;;;;;;;;5075076;28;20227;-78
2023/12/15 06:07:00;;;;;;;20.90;10.37;;;;;;;;;;5074769;28;20226;-77
2023/12/15 06:09:27;;;;;;;20.10;10.43;;;;;;;;;;5075329;28;20266;-77
2023/12/15 06:11:55;;;;;;;23.47;10.67;;;;;;;;;;5074965;28;20226;-78
2023/12/15 06:14:22;;;;;;;17.37;10.10;;;;;;;;;;5075177;28;20243;-78
2023/12/15 06:16:49;;;;;;;21.97;9.73;;;;;;;;;;5075565;28;20245;-78
2023/12/15 06:19:16;;;;;;;17.43;9.20;;;;;;;;;;5074390;28;20245;-78
2023/12/15 06:21:44;;;;;;;18.47;10.43;;;;;;;;;;5072573;28;20195;-78
2023/12/15 06:24:11;;;;;;;19.53;9.43;;;;;;;;;;5075513;28;20196;-78
2023/12/15 06:26:38;;;;;;;19.07;9.47;;;;;;;;;;5075375;28;20551;-78
2023/12/15 06:29:05;;;;;;;19.67;9.73;;;;;;;;;;5075060;28;20207;-78
2023/12/15 06:31:32;;;;;;;18.10;9.20;;;;;;;;;;5075963;28;20266;-78
2023/12/15 06:33:59;;;;;;;17.97;9.60;;;;;;;;;;5075729;28;20640;-78
2023/12/15 06:36:26;;;;;;;17.33;8.57;;;;;;;;;;5075913;28;20278;-78
2023/12/15 06:38:56;;;;;;;15.57;9.00;;;;;;;;;;5058392;28;20252;-78
2023/12/15 06:41:24;;;;;;;18.73;8.97;;;;;;;;;;5075586;28;20196;-78
2023/12/15 06:43:51;;;;;;;15.20;7.97;;;;;;;;;;5075321;28;20541;-78
2023/12/15 06:46:19;;;;;;;17.80;9.37;;;;;;;;;;5075344;28;20218;-78
2023/12/15 06:48:46;;;;;;;16.40;8.20;;;;;;;;;;5075343;28;20203;-78
2023/12/15 06:51:14;;;;;;;18.67;8.93;;;;;;;;;;5074959;28;20278;-78
2023/12/15 06:53:41;;;;;;;18.30;8.40;;;;;;;;;;5075296;28;20253;-78
2023/12/15 06:56:08;;;;;;;16.37;8.40;;;;;;;;;;5075074;28;20293;-78
2023/12/15 06:58:35;;;;;;;149.73;42.00;;;;;;;;;;5075505;28;20203;-78
2023/12/15 07:01:03;;;;;;;17.77;9.37;;;;;;;;;;5075274;28;20298;-78
2023/12/15 07:03:31;;;;;;;18.80;9.27;;;;;;;;;;5075469;28;20204;-78
2023/12/15 07:05:58;;;;;;;25.77;11.63;;;;;;;;;;5075391;28;20225;-78
2023/12/15 07:08:25;;;;;;;15.63;7.53;;;;;;;;;;5075222;28;20206;-78
2023/12/15 07:10:52;;;;;;;15.23;8.50;;;;;;;;;;5075253;28;20602;-78
2023/12/15 07:13:19;;;;;;;21.43;9.13;;;;;;;;;;5075254;28;20694;-78
2023/12/15 07:15:46;;;;;;;16.83;8.67;;;;;;;;;;5075107;28;20211;-78
2023/12/15 07:18:13;;;;;;;18.57;9.13;;;;;;;;;;5074860;28;20198;-78
2023/12/15 07:20:40;;;;;;;16.53;8.40;;;;;;;;;;5074938;28;20214;-78
2023/12/15 07:23:07;;;;;;;15.53;8.53;;;;;;;;;;5074759;28;20216;-79
2023/12/15 07:25:37;;;;;;;21.47;9.47;;;;;;;;;;5074982;28;20203;-78
2023/12/15 07:28:04;;;;;;;23.10;9.77;;;;;;;;;;5075028;28;20207;-78
2023/12/15 07:30:31;;;;;;;21.40;9.97;;;;;;;;;;5074626;28;20215;-78
2023/12/15 07:32:59;;;;;;;22.13;10.03;;;;;;;;;;5074489;28;20203;-78
2023/12/15 07:35:26;;;;;;;21.53;9.63;;;;;;;;;;5074589;28;20275;-78
2023/12/15 07:37:59;;;;;;;18.97;9.67;;;;;;;;;;5074898;28;20207;-78
2023/12/15 07:40:27;;;;;;;18.37;9.67;;;;;;;;;;5075111;28;20192;-78
2023/12/15 07:42:55;;;;;;;22.07;10.23;;;;;;;;;;5074486;28;20320;-79
2023/12/15 07:45:22;;;;;;;23.37;10.27;;;;;;;;;;5074417;28;20237;-78
2023/12/15 07:47:49;;;;;;;20.40;10.13;;;;;;;;;;5074572;28;20249;-78
2023/12/15 07:50:16;;;;;;;20.33;9.60;;;;;;;;;;5074262;28;20671;-78
2023/12/15 07:52:44;;;;;;;19.90;9.70;;;;;;;;;;5074189;28;20227;-78
2023/12/15 07:55:11;;;;;;;20.47;10.60;;;;;;;;;;5073843;28;20266;-78
2023/12/15 07:57:39;;;;;;;18.20;10.03;;;;;;;;;;5074142;28;20679;-78
2023/12/15 08:00:11;;;;;;;19.67;10.03;;;;;;;;;;5074008;28;20200;-78
2023/12/15 08:02:39;;;;;;;24.20;12.47;;;;;;;;;;5074017;28;20204;-78
2023/12/15 08:05:06;;;;;;;26.57;12.00;;;;;;;;;;5074040;28;20192;-78
2023/12/15 08:07:34;;;;;;;46.03;26.80;;;;;;;;;;5073604;28;20195;-78
2023/12/15 08:10:01;;;;;;;36.23;21.17;;;;;;;;;;5073620;28;20594;-78
2023/12/15 08:12:28;;;;;;;21.13;10.17;;;;;;;;;;5074094;28;20745;-78
2023/12/15 08:14:55;;;;;;;26.10;11.07;;;;;;;;;;5073591;28;20212;-78
2023/12/15 08:17:22;;;;;;;26.43;10.90;;;;;;;;;;5073981;28;20199;-79
2023/12/15 08:19:49;;;;;;;22.40;10.77;;;;;;;;;;5073822;28;20556;-78
2023/12/15 08:22:17;;;;;;;25.10;11.67;;;;;;;;;;5073798;28;20203;-78
2023/12/15 08:24:44;;;;;;;28.47;12.47;;;;;;;;;;5073642;28;20199;-78
2023/12/15 08:27:12;;;;;;;35.57;14.20;;;;;;;;;;5073415;28;20208;-78
2023/12/15 08:29:41;;;;;;;34.43;14.83;;;;;;;;;;5073507;28;20199;-78
2023/12/15 08:32:09;;;;;;;122.53;30.93;;;;;;;;;;5055626;28;20757;-78
2023/12/15 08:34:36;;;;;;;19.73;9.77;;;;;;;;;;5073401;28;20222;-78
2023/12/15 08:37:03;;;;;;;48.53;17.20;;;;;;;;;;5073480;28;20268;-78
2023/12/15 08:39:30;;;;;;;45.10;14.83;;;;;;;;;;5073731;28;20261;-78
2023/12/15 08:41:57;;;;;;;36.00;13.90;;;;;;;;;;5073460;28;20195;-78
2023/12/15 08:44:24;;;;;;;40.57;14.27;;;;;;;;;;5073396;28;20203;-78
2023/12/15 08:47:01;;;;;;;43.17;14.03;;;;;;;;;;5073467;28;20187;-78
2023/12/15 08:49:28;;;;;;;36.73;11.53;;;;;;;;;;5073398;28;20506;-78
2023/12/15 08:51:55;;;;;;;34.97;12.90;;;;;;;;;;5073364;28;20219;-78
2023/12/15 08:54:23;;;;;;;53.83;23.77;;;;;;;;;;5073453;28;20229;-78
2023/12/15 08:56:50;;;;;;;37.33;13.60;;;;;;;;;;5073304;28;20217;-78
2023/12/15 08:59:17;;;;;;;23.07;9.83;;;;;;;;;;5073280;28;20721;-78
2023/12/15 09:01:44;;;;;;;32.40;11.83;;;;;;;;;;5073287;28;20199;-78
2023/12/15 09:04:11;;;;;;;58.77;21.00;;;;;;;;;;5055732;28;20649;-78
2023/12/15 09:06:38;;;;;;;33.30;14.00;;;;;;;;;;5073181;28;20597;-78
2023/12/15 09:09:11;;;;;;;35.37;12.80;;;;;;;;;;5073156;28;20655;-78
2023/12/15 09:11:39;;;;;;;23.90;10.73;;;;;;;;;;5073321;28;20226;-78
2023/12/15 09:14:07;;;;;;;22.50;10.53;;;;;;;;;;5073437;28;21099;-78
2023/12/15 09:16:34;;;;;;;42.47;15.77;;;;;;;;;;5073322;28;20203;-78
2023/12/15 09:19:01;;;;;;;24.30;11.77;;;;;;;;;;5073048;28;20256;-78
2023/12/15 09:21:29;;;;;;;42.33;13.77;;;;;;;;;;5076396;28;20203;-78
2023/12/15 09:23:56;;;;;;;32.47;12.10;;;;;;;;;;5076993;28;20656;-78
2023/12/15 09:26:25;;;;;;;45.07;18.70;;;;;;;;;;5077671;28;20195;-78
2023/12/15 09:28:53;;;;;;;26.40;11.50;;;;;;;;;;5077188;28;20250;-78
2023/12/15 09:31:21;;;;;;;37.80;13.83;;;;;;;;;;5077316;28;20683;-78
2023/12/15 09:33:48;;;;;;;27.13;12.00;;;;;;;;;;5076949;28;20195;-78
2023/12/15 09:36:16;;;;;;;184.03;44.53;;;;;;;;;;5077128;28;20199;-78
2023/12/15 09:38:43;;;;;;;70.63;19.57;;;;;;;;;;5077318;28;20219;-79
2023/12/15 09:41:10;;;;;;;50.70;15.93;;;;;;;;;;5059283;28;20633;-78
2023/12/15 09:43:38;;;;;;;46.70;15.60;;;;;;;;;;5076812;28;20223;-78
2023/12/15 09:46:05;;;;;;;32.07;12.50;;;;;;;;;;5058947;28;20215;-78
2023/12/15 09:48:33;;;;;;;39.40;15.13;;;;;;;;;;5059135;28;20207;-79
2023/12/15 09:51:08;;;;;;;30.80;11.70;;;;;;;;;;5076569;28;20241;-78
2023/12/15 09:53:36;;;;;;;27.47;11.63;;;;;;;;;;5076643;28;20210;-78
2023/12/15 09:56:04;;;;;;;27.07;11.03;;;;;;;;;;5076418;28;20641;-78
2023/12/15 09:58:31;;;;;;;82.00;28.07;;;;;;;;;;5076682;28;20203;-78
2023/12/15 10:00:58;;;;;;;35.43;13.00;;;;;;;;;;5076397;28;20187;-78
2023/12/15 10:03:26;;;;;;;43.77;13.53;;;;;;;;;;5076422;28;20203;-78
2023/12/15 10:05:53;;;;;;;30.83;12.60;;;;;;;;;;5076569;28;20238;-78
2023/12/15 10:08:23;;;;;;;40.67;15.60;;;;;;;;;;5058970;28;20206;-78
2023/12/15 10:10:51;;;;;;;21.53;10.30;;;;;;;;;;5076402;28;20282;-78
2023/12/15 10:13:19;;;;;;;33.13;12.20;;;;;;;;;;5075907;28;20687;-78
2023/12/15 10:15:50;;;;;;;36.20;12.50;;;;;;;;;;5075988;28;20218;-78
2023/12/15 10:18:17;;;;;;;28.13;11.03;;;;;;;;;;5076114;28;20206;-78
2023/12/15 10:20:58;;;;;;;40.07;16.10;;;;;;;;;;5076069;28;20567;-78
2023/12/15 10:23:30;;;;;;;37.13;12.37;;;;;;;;;;5076060;28;20210;-78
2023/12/15 10:25:58;;;;;;;44.00;13.70;;;;;;;;;;5058243;28;20210;-78
2023/12/15 10:28:25;;;;;;;34.20;11.73;;;;;;;;;;5075967;28;20200;-78
2023/12/15 10:30:53;;;;;;;99.93;35.97;;;;;;;;;;5075732;28;20195;-78
2023/12/15 10:33:21;;;;;;;52.47;14.20;;;;;;;;;;5076114;28;20273;-78
2023/12/15 10:35:49;;;;;;;47.03;13.03;;;;;;;;;;5076017;28;20641;-78
2023/12/15 10:38:16;;;;;;;36.00;12.37;;;;;;;;;;5057928;28;20206;-78
2023/12/15 10:40:43;;;;;;;62.60;18.20;;;;;;;;;;5057865;28;20660;-78
2023/12/15 10:43:11;;;;;;;61.67;19.63;;;;;;;;;;5075393;28;20207;-78
2023/12/15 10:45:38;;;;;;;47.53;13.63;;;;;;;;;;5075886;28;20198;-78
2023/12/15 10:48:07;;;;;;;27.73;11.00;;;;;;;;;;5075633;28;20196;-78
2023/12/15 10:50:36;;;;;;;44.73;13.30;;;;;;;;;;5075480;28;20260;-78
2023/12/15 10:53:03;;;;;;;52.57;21.53;;;;;;;;;;5075589;28;20696;-78
2023/12/15 10:55:31;;;;;;;33.27;11.53;;;;;;;;;;5057527;28;20231;-78
2023/12/15 10:58:00;;;;;;;31.13;11.97;;;;;;;;;;5075673;28;20211;-78
2023/12/15 11:00:31;;;;;;;29.23;10.77;;;;;;;;;;5075428;28;20206;-78
2023/12/15 11:03:00;;;;;;;66.13;24.93;;;;;;;;;;5057644;28;20204;-78
2023/12/15 11:05:28;;;;;;;75.37;18.33;;;;;;;;;;5075171;28;20210;-78
2023/12/15 11:08:03;;;;;;;28.80;11.90;;;;;;;;;;5075229;28;20280;-78
2023/12/15 11:10:31;;;;;;;27.70;11.47;;;;;;;;;;5074949;28;20196;-78
2023/12/15 11:12:58;;;;;;;33.30;12.47;;;;;;;;;;5074918;28;20223;-78
2023/12/15 11:15:26;;;;;;;44.27;14.40;;;;;;;;;;5074866;28;20207;-78
2023/12/15 11:17:56;;;;;;;34.57;11.10;;;;;;;;;;5074954;28;20207;-78
2023/12/15 11:20:25;;;;;;;28.27;9.97;;;;;;;;;;5057229;28;20203;-78
2023/12/15 11:22:58;;;;;;;49.67;14.27;;;;;;;;;;5075149;28;20310;-78
2023/12/15 11:25:30;;;;;;;61.40;20.17;;;;;;;;;;5075044;28;20195;-78
2023/12/15 11:28:03;;;;;;;25.53;10.77;;;;;;;;;;5075259;28;20207;-78
2023/12/15 11:30:40;;;;;;;40.57;12.23;;;;;;;;;;5074627;28;20207;-78
2023/12/15 11:33:19;;;;;;;45.93;13.87;;;;;;;;;;5074561;28;20275;-78
2023/12/15 11:35:55;;;;;;;62.83;26.50;;;;;;;;;;5074687;28;20206;-78
2023/12/15 11:38:22;;;;;;;27.60;10.93;;;;;;;;;;5074915;28;20210;-78
2023/12/15 11:40:50;;;;;;;26.53;11.20;;;;;;;;;;5074109;28;20537;-78
2023/12/15 11:43:17;;;;;;;24.50;10.20;;;;;;;;;;5073662;28;20207;-77
2023/12/15 11:45:46;;;;;;;25.87;11.40;;;;;;;;;;5074365;28;20310;-78
2023/12/15 11:48:13;;;;;;;19.77;9.00;;;;;;;;;;5074652;28;20203;-78
2023/12/15 11:50:43;;;;;;;30.97;11.23;;;;;;;;;;5074535;28;20552;-78
2023/12/15 11:53:10;;;;;;;20.13;10.40;;;;;;;;;;5074407;28;20621;-78
2023/12/15 11:55:39;;;;;;;28.30;10.03;;;;;;;;;;5074303;28;20238;-78
2023/12/15 11:58:14;;;;;;;21.17;10.33;;;;;;;;;;5056572;28;20187;-78
2023/12/15 12:00:42;;;;;;;23.90;10.53;;;;;;;;;;5074132;28;20211;-78
2023/12/15 12:03:15;;;;;;;28.70;11.07;;;;;;;;;;5074197;28;20727;-78
2023/12/15 12:05:47;;;;;;;25.30;9.80;;;;;;;;;;5074109;28;20199;-78
2023/12/15 12:08:15;;;;;;;19.73;10.07;;;;;;;;;;5074252;28;20644;-78
2023/12/15 12:10:42;;;;;;;28.57;10.77;;;;;;;;;;5073959;28;20210;-78
2023/12/15 12:13:10;;;;;;;22.53;10.40;;;;;;;;;;5074055;28;20231;-78
2023/12/15 12:16:08;;;;;;;28.97;11.17;;;;;;;;;;5056418;28;20214;-78
2023/12/15 12:18:35;;;;;;;24.60;11.87;;;;;;;;;;4992526;28;20233;-78
2023/12/15 12:21:05;;;;;;;23.63;11.00;;;;;;;;;;4992401;28;20202;-78
2023/12/15 12:23:33;;;;;;;19.33;10.10;;;;;;;;;;4992634;28;20220;-78
2023/12/15 12:26:12;;;;;;;19.00;10.60;;;;;;;;;;4992473;28;20209;-78
2023/12/15 12:28:41;;;;;;;25.07;15.10;;;;;;;;;;4992403;28;20228;-78
2023/12/15 12:31:09;;;;;;;27.53;13.77;;;;;;;;;;4992095;28;20687;-78
2023/12/15 12:33:35;;;;;;;22.10;11.90;;;;;;;;;;4992413;28;20233;-77
2023/12/15 12:36:04;;;;;;;23.20;11.93;;;;;;;;;;4992323;28;20217;-79
2023/12/15 12:38:31;;;;;;;20.67;11.20;;;;;;;;;;4992453;28;20296;-78
2023/12/15 12:41:02;;;;;;;24.23;11.30;;;;;;;;;;4991973;28;20194;-78
2023/12/15 12:43:30;;;;;;;24.17;12.27;;;;;;;;;;4992145;28;20208;-78
2023/12/15 12:45:57;;;;;;;20.87;11.13;;;;;;;;;;4992015;28;20216;-78
2023/12/15 12:48:24;;;;;;;24.03;12.57;;;;;;;;;;4991821;28;20670;-78
2023/12/15 12:50:51;;;;;;;28.23;13.53;;;;;;;;;;4991934;28;20674;-78
2023/12/15 12:53:18;;;;;;;21.87;12.23;;;;;;;;;;4991826;28;20240;-78
2023/12/15 12:55:46;;;;;;;24.73;13.57;;;;;;;;;;5056392;28;20273;-78
2023/12/15 12:58:13;;;;;;;26.90;13.27;;;;;;;;;;5073336;28;20199;-77
2023/12/15 13:00:40;;;;;;;52.67;22.13;;;;;;;;;;5073284;28;20218;-78
2023/12/15 13:03:07;;;;;;;25.53;11.93;;;;;;;;;;5072914;28;20207;-77
2023/12/15 13:05:35;;;;;;;28.63;13.53;;;;;;;;;;5055523;28;20207;-78
2023/12/15 13:08:02;;;;;;;27.33;12.53;;;;;;;;;;5073438;28;20196;-78
2023/12/15 13:10:30;;;;;;;29.57;12.63;;;;;;;;;;5073191;28;20195;-77
2023/12/15 13:12:57;;;;;;;27.10;12.50;;;;;;;;;;5073087;28;20225;-77
2023/12/15 13:15:24;;;;;;;24.67;12.67;;;;;;;;;;5071784;28;20195;-77
2023/12/15 13:17:53;;;;;;;24.57;12.93;;;;;;;;;;5070307;28;20217;-78
2023/12/15 13:20:23;;;;;;;27.77;13.20;;;;;;;;;;5072983;28;20234;-77
2023/12/15 13:22:50;;;;;;;42.63;19.40;;;;;;;;;;5068402;28;20270;-78
2023/12/15 13:25:17;;;;;;;27.07;13.13;;;;;;;;;;5072608;28;20195;-78
2023/12/15 13:27:48;;;;;;;30.03;13.83;;;;;;;;;;5072608;28;20659;-78
2023/12/15 13:30:15;;;;;;;29.20;15.17;;;;;;;;;;5052855;28;20241;-78
2023/12/15 13:32:42;;;;;;;29.20;15.40;;;;;;;;;;5072863;28;20226;-77
2023/12/15 13:35:10;;;;;;;27.03;13.27;;;;;;;;;;5073000;28;20261;-77
2023/12/15 13:37:37;;;;;;;39.80;16.97;;;;;;;;;;5073108;28;20195;-77
2023/12/15 13:40:05;;;;;;;29.33;15.03;;;;;;;;;;5072679;28;20540;-77
2023/12/15 13:42:32;;;;;;;30.47;15.63;;;;;;;;;;5052268;28;20191;-78
2023/12/15 13:44:59;;;;;;;33.70;15.03;;;;;;;;;;5067380;28;20258;-78
2023/12/15 13:47:26;;;;;;;40.57;16.17;;;;;;;;;;5070760;28;20223;-78
2023/12/15 13:49:54;;;;;;;28.77;14.10;;;;;;;;;;5071172;28;20700;-78
2023/12/15 13:52:21;;;;;;;26.83;14.37;;;;;;;;;;5069619;28;20223;-78
2023/12/15 13:54:48;;;;;;;29.63;14.83;;;;;;;;;;5066889;28;20246;-78
2023/12/15 13:57:15;;;;;;;32.03;14.80;;;;;;;;;;5072496;28;20722;-78
2023/12/15 13:59:42;;;;;;;28.07;13.63;;;;;;;;;;5053555;28;20250;-78
2023/12/15 14:02:09;;;;;;;30.83;15.97;;;;;;;;;;5072919;28;20231;-78
2023/12/15 14:04:37;;;;;;;45.97;25.40;;;;;;;;;;5072082;28;20722;-78
2023/12/15 14:07:04;;;;;;;53.33;30.20;;;;;;;;;;5075084;28;20306;-78
2023/12/15 14:09:31;;;;;;;55.27;24.33;;;;;;;;;;5075812;28;20250;-78
2023/12/15 14:11:58;;;;;;;43.43;20.33;;;;;;;;;;5076362;28;20238;-78
2023/12/15 14:14:26;;;;;;;39.83;17.77;;;;;;;;;;5080247;28;20612;-78
2023/12/15 14:16:53;;;;;;;39.20;18.53;;;;;;;;;;5078207;28;20226;-78
2023/12/15 14:19:20;;;;;;;46.17;19.80;;;;;;;;;;5074073;28;20722;-78
2023/12/15 14:21:47;;;;;;;41.17;17.77;;;;;;;;;;5074838;28;20220;-78